sensor_id;sensor_type;location;lat;lon;timestamp;pressure;altitude;pressure_sealevel;temperature;humidity
38225;BME280;24025;48.138;11.428;2023-05-02T00:01:50;95581.88;;;9.75;100.00
38225;BME280;24025;48.138;11.428;2023-05-02T00:04:22;95584.53;;;9.75;100.00
38225;BME280;24025;48.138;11.428;2023-05-02T00:06:54;95582.81;;;9.63;100.00
38225;BME280;24025;48.138;11.428;2023-05-02T00:09:26;95585.81;;;9.62;100.00
38225;BME280;24025;48.138;11.428;2023-05-02T00:11:57;95580.47;;;9.62;100.00
38225;BME280;24025;48.138;11.428;2023-05-02T00:14:29;95576.59;;;9.56;100.00
38225;BME280;24025;48.138;11.428;2023-05-02T00:17:01;95578.91;;;9.57;100.00
38225;BME280;24025;48.138;11.428;2023-05-02T00:19:37;95579.31;;;9.59;100.00
38225;BME280;24025;48.138;11.428;2023-05-02T00:22:10;95576.59;;;9.56;100.00
38225;BME280;24025;48.138;11.428;2023-05-02T00:24:41;95577.06;;;9.61;100.00
38225;BME280;24025;48.138;11.428;2023-05-02T00:27:13;95573.84;;;9.52;100.00
38225;BME280;24025;48.138;11.428;2023-05-02T00:29:44;95577.66;;;9.51;100.00
38225;BME280;24025;48.138;11.428;2023-05-02T00:32:18;95583.59;;;9.45;100.00
38225;BME280;24025;48.138;11.428;2023-05-02T00:34:49;95574.44;;;9.42;100.00
38225;BME280;24025;48.138;11.428;2023-05-02T00:37:25;95586.94;;;9.38;100.00
38225;BME280;24025;48.138;11.428;2023-05-02T00:39:57;95575.78;;;9.32;100.00
38225;BME280;24025;48.138;11.428;2023-05-02T00:42:29;95577.06;;;9.39;100.00
38225;BME280;24025;48.138;11.428;2023-05-02T00:45:03;95572.84;;;9.38;100.00
38225;BME280;24025;48.138;11.428;2023-05-02T00:47:36;95582.38;;;9.39;100.00
38225;BME280;24025;48.138;11.428;2023-05-02T00:50:08;95579.22;;;9.33;100.00
38225;BME280;24025;48.138;11.428;2023-05-02T00:52:40;95574.97;;;9.28;100.00
38225;BME280;24025;48.138;11.428;2023-05-02T00:55:12;95577.31;;;9.33;100.00
38225;BME280;24025;48.138;11.428;2023-05-02T00:57:43;95578.09;;;9.34;100.00
38225;BME280;24025;48.138;11.428;2023-05-02T01:00:15;95583.50;;;9.38;100.00
38225;BME280;24025;48.138;11.428;2023-05-02T01:02:50;95579.34;;;9.40;100.00
38225;BME280;24025;48.138;11.428;2023-05-02T01:05:27;95585.94;;;9.46;100.00
38225;BME280;24025;48.138;11.428;2023-05-02T01:08:13;95583.59;;;9.45;100.00
38225;BME280;24025;48.138;11.428;2023-05-02T01:13:44;95584.72;;;9.44;100.00
38225;BME280;24025;48.138;11.428;2023-05-02T01:16:18;95582.00;;;9.40;100.00
38225;BME280;24025;48.138;11.428;2023-05-02T01:18:51;95579.94;;;9.30;99.88
38225;BME280;24025;48.138;11.428;2023-05-02T01:21:23;95579.97;;;9.33;100.00
38225;BME280;24025;48.138;11.428;2023-05-02T01:27:21;95575.44;;;9.34;100.00
38225;BME280;24025;48.138;11.428;2023-05-02T01:29:56;95584.91;;;9.31;100.00
38225;BME280;24025;48.138;11.428;2023-05-02T01:32:32;95583.00;;;9.32;99.99
38225;BME280;24025;48.138;11.428;2023-05-02T01:35:06;95586.44;;;9.32;99.90
38225;BME280;24025;48.138;11.428;2023-05-02T01:37:40;95584.94;;;9.35;99.78
38225;BME280;24025;48.138;11.428;2023-05-02T01:40:18;95586.94;;;9.38;99.65
38225;BME280;24025;48.138;11.428;2023-05-02T01:42:51;95584.25;;;9.38;99.03
38225;BME280;24025;48.138;11.428;2023-05-02T01:45:24;95583.06;;;9.35;98.95
38225;BME280;24025;48.138;11.428;2023-05-02T01:47:57;95589.22;;;9.40;99.07
38225;BME280;24025;48.138;11.428;2023-05-02T01:50:28;95588.50;;;9.43;98.50
38225;BME280;24025;48.138;11.428;2023-05-02T01:53:01;95593.06;;;9.42;98.24
38225;BME280;24025;48.138;11.428;2023-05-02T01:55:35;95587.34;;;9.40;97.92
38225;BME280;24025;48.138;11.428;2023-05-02T01:58:09;95596.09;;;9.41;97.49
38225;BME280;24025;48.138;11.428;2023-05-02T02:00:42;95587.69;;;9.39;98.01
38225;BME280;24025;48.138;11.428;2023-05-02T02:03:16;95592.25;;;9.38;97.39
38225;BME280;24025;48.138;11.428;2023-05-02T02:05:51;95605.13;;;9.36;97.56
38225;BME280;24025;48.138;11.428;2023-05-02T02:08:23;95602.44;;;9.36;97.67
38225;BME280;24025;48.138;11.428;2023-05-02T02:11:03;95606.59;;;9.33;97.04
38225;BME280;24025;48.138;11.428;2023-05-02T02:13:48;95602.81;;;9.34;97.10
38225;BME280;24025;48.138;11.428;2023-05-02T02:16:23;95604.78;;;9.18;96.86
38225;BME280;24025;48.138;11.428;2023-05-02T02:18:58;95609.63;;;9.13;97.73
38225;BME280;24025;48.138;11.428;2023-05-02T02:21:34;95611.44;;;9.08;98.06
38225;BME280;24025;48.138;11.428;2023-05-02T02:24:07;95616.19;;;8.99;99.21
38225;BME280;24025;48.138;11.428;2023-05-02T02:26:39;95610.38;;;8.94;99.29
38225;BME280;24025;48.138;11.428;2023-05-02T02:29:11;95613.06;;;8.94;99.13
38225;BME280;24025;48.138;11.428;2023-05-02T02:31:42;95611.34;;;8.86;99.71
38225;BME280;24025;48.138;11.428;2023-05-02T02:34:14;95615.19;;;8.88;100.00
38225;BME280;24025;48.138;11.428;2023-05-02T02:36:59;95611.34;;;8.86;99.97
38225;BME280;24025;48.138;11.428;2023-05-02T02:39:45;95617.44;;;8.86;100.00
38225;BME280;24025;48.138;11.428;2023-05-02T02:42:32;95618.47;;;8.82;100.00
38225;BME280;24025;48.138;11.428;2023-05-02T02:57:01;95627.47;;;8.93;99.79
38225;BME280;24025;48.138;11.428;2023-05-02T02:59:39;95629.06;;;8.97;100.00
38225;BME280;24025;48.138;11.428;2023-05-02T03:02:16;95635.94;;;8.98;99.87
38225;BME280;24025;48.138;11.428;2023-05-02T03:04:50;95632.16;;;8.99;99.73
38225;BME280;24025;48.138;11.428;2023-05-02T03:07:22;95638.22;;;9.00;99.44
38225;BME280;24025;48.138;11.428;2023-05-02T03:09:54;95637.56;;;9.03;99.52
38225;BME280;24025;48.138;11.428;2023-05-02T03:12:25;95638.59;;;8.98;98.89
38225;BME280;24025;48.138;11.428;2023-05-02T03:18:01;95638.22;;;9.00;98.90
38225;BME280;24025;48.138;11.428;2023-05-02T03:20:33;95635.66;;;9.03;98.61
38225;BME280;24025;48.138;11.428;2023-05-02T03:23:05;95641.34;;;9.02;98.84
38225;BME280;24025;48.138;11.428;2023-05-02T03:25:36;95654.19;;;9.00;99.29
38225;BME280;24025;48.138;11.428;2023-05-02T03:28:08;95644.66;;;8.99;98.71
38225;BME280;24025;48.138;11.428;2023-05-02T03:30:39;95640.13;;;8.99;98.03
38225;BME280;24025;48.138;11.428;2023-05-02T03:33:12;95645.78;;;8.98;97.97
38225;BME280;24025;48.138;11.428;2023-05-02T03:35:43;95651.47;;;8.96;97.89
38225;BME280;24025;48.138;11.428;2023-05-02T03:38:15;95645.72;;;8.94;98.40
38225;BME280;24025;48.138;11.428;2023-05-02T03:40:47;95645.63;;;8.91;97.51
38225;BME280;24025;48.138;11.428;2023-05-02T03:43:18;95646.59;;;8.83;97.53
38225;BME280;24025;48.138;11.428;2023-05-02T03:45:50;95647.38;;;8.83;98.00
38225;BME280;24025;48.138;11.428;2023-05-02T03:48:21;95658.34;;;8.82;98.14
38225;BME280;24025;48.138;11.428;2023-05-02T03:50:53;95655.34;;;8.83;98.58
38225;BME280;24025;48.138;11.428;2023-05-02T03:53:25;95662.56;;;8.83;97.95
38225;BME280;24025;48.138;11.428;2023-05-02T03:55:57;95658.44;;;8.85;97.90
38225;BME280;24025;48.138;11.428;2023-05-02T03:58:29;95666.44;;;8.85;97.54
38225;BME280;24025;48.138;11.428;2023-05-02T04:01:00;95665.31;;;8.86;98.05
38225;BME280;24025;48.138;11.428;2023-05-02T04:03:32;95665.03;;;8.91;97.44
38225;BME280;24025;48.138;11.428;2023-05-02T04:06:04;95673.78;;;8.92;97.25
38225;BME280;24025;48.138;11.428;2023-05-02T04:08:35;95673.00;;;8.91;97.15
38225;BME280;24025;48.138;11.428;2023-05-02T04:11:07;95675.75;;;8.95;97.08
38225;BME280;24025;48.138;11.428;2023-05-02T04:13:39;95683.03;;;8.98;96.41
38225;BME280;24025;48.138;11.428;2023-05-02T04:16:10;95688.34;;;8.98;95.70
38225;BME280;24025;48.138;11.428;2023-05-02T04:18:42;95698.63;;;8.99;95.79
38225;BME280;24025;48.138;11.428;2023-05-02T04:21:13;95689.53;;;9.00;95.59
38225;BME280;24025;48.138;11.428;2023-05-02T04:23:45;95692.19;;;9.00;95.71
38225;BME280;24025;48.138;11.428;2023-05-02T04:26:16;95694.94;;;9.04;95.60
38225;BME280;24025;48.138;11.428;2023-05-02T04:28:48;95694.19;;;9.03;95.54
38225;BME280;24025;48.138;11.428;2023-05-02T04:31:19;95699.16;;;9.05;95.48
38225;BME280;24025;48.138;11.428;2023-05-02T04:33:51;95696.91;;;9.07;95.13
38225;BME280;24025;48.138;11.428;2023-05-02T04:36:24;95706.88;;;9.10;95.17
38225;BME280;24025;48.138;11.428;2023-05-02T04:38:56;95710.78;;;9.16;94.80
38225;BME280;24025;48.138;11.428;2023-05-02T04:41:27;95719.09;;;9.15;95.03
38225;BME280;24025;48.138;11.428;2023-05-02T04:43:59;95716.19;;;9.20;95.22
38225;BME280;24025;48.138;11.428;2023-05-02T04:46:30;95713.59;;;9.23;94.90
38225;BME280;24025;48.138;11.428;2023-05-02T04:49:02;95719.31;;;9.25;94.90
38225;BME280;24025;48.138;11.428;2023-05-02T04:51:33;95719.38;;;9.09;95.07
38225;BME280;24025;48.138;11.428;2023-05-02T04:54:05;95723.59;;;9.11;94.92
38225;BME280;24025;48.138;11.428;2023-05-02T04:56:37;95732.34;;;9.11;95.33
38225;BME280;24025;48.138;11.428;2023-05-02T04:59:10;95733.47;;;9.10;95.39
38225;BME280;24025;48.138;11.428;2023-05-02T05:01:42;95737.72;;;9.15;95.79
38225;BME280;24025;48.138;11.428;2023-05-02T05:04:15;95743.56;;;9.20;95.85
38225;BME280;24025;48.138;11.428;2023-05-02T05:06:47;95744.69;;;9.19;95.71
38225;BME280;24025;48.138;11.428;2023-05-02T05:09:19;95738.66;;;9.22;95.76
38225;BME280;24025;48.138;11.428;2023-05-02T05:11:51;95744.56;;;9.31;95.18
38225;BME280;24025;48.138;11.428;2023-05-02T05:14:22;95743.84;;;9.34;95.47
38225;BME280;24025;48.138;11.428;2023-05-02T05:16:54;95746.44;;;9.31;95.55
38225;BME280;24025;48.138;11.428;2023-05-02T05:19:26;95748.63;;;9.45;95.23
38225;BME280;24025;48.138;11.428;2023-05-02T05:21:58;95747.06;;;9.44;95.03
38225;BME280;24025;48.138;11.428;2023-05-02T05:24:29;95753.81;;;9.38;94.83
38225;BME280;24025;48.138;11.428;2023-05-02T05:27:01;95758.66;;;9.51;95.22
38225;BME280;24025;48.138;11.428;2023-05-02T05:29:33;95756.13;;;9.39;94.82
38225;BME280;24025;48.138;11.428;2023-05-02T05:32:04;95769.28;;;9.51;95.20
38225;BME280;24025;48.138;11.428;2023-05-02T05:34:36;95762.38;;;9.47;94.43
38225;BME280;24025;48.138;11.428;2023-05-02T05:37:08;95764.25;;;9.46;95.01
38225;BME280;24025;48.138;11.428;2023-05-02T05:39:39;95772.53;;;9.60;95.43
38225;BME280;24025;48.138;11.428;2023-05-02T05:42:11;95766.84;;;9.62;95.00
38225;BME280;24025;48.138;11.428;2023-05-02T05:44:43;95772.13;;;9.78;94.14
38225;BME280;24025;48.138;11.428;2023-05-02T05:47:19;95782.56;;;9.86;94.27
38225;BME280;24025;48.138;11.428;2023-05-02T05:49:53;95789.28;;;9.80;94.51
38225;BME280;24025;48.138;11.428;2023-05-02T05:52:24;95793.22;;;9.86;93.87
38225;BME280;24025;48.138;11.428;2023-05-02T05:54:56;95783.75;;;9.89;94.12
38225;BME280;24025;48.138;11.428;2023-05-02T05:57:27;95792.44;;;9.86;94.76
38225;BME280;24025;48.138;11.428;2023-05-02T05:59:59;95802.13;;;9.94;94.55
38225;BME280;24025;48.138;11.428;2023-05-02T06:02:31;95790.56;;;9.86;93.86
38225;BME280;24025;48.138;11.428;2023-05-02T06:05:03;95795.81;;;10.02;93.49
38225;BME280;24025;48.138;11.428;2023-05-02T06:07:35;95794.41;;;10.08;93.65
38225;BME280;24025;48.138;11.428;2023-05-02T06:10:06;95802.69;;;10.03;93.95
38225;BME280;24025;48.138;11.428;2023-05-02T06:12:39;95808.72;;;10.00;94.11
38225;BME280;24025;48.138;11.428;2023-05-02T06:15:11;95809.06;;;9.99;93.13
38225;BME280;24025;48.138;11.428;2023-05-02T06:17:43;95808.72;;;10.00;93.32
38225;BME280;24025;48.138;11.428;2023-05-02T06:20:14;95809.28;;;10.09;93.72
38225;BME280;24025;48.138;11.428;2023-05-02T06:22:48;95813.53;;;10.14;92.72
38225;BME280;24025;48.138;11.428;2023-05-02T06:25:20;95816.34;;;10.21;92.44
38225;BME280;24025;48.138;11.428;2023-05-02T06:27:52;95814.66;;;10.32;92.12
38225;BME280;24025;48.138;11.428;2023-05-02T06:30:23;95823.16;;;10.38;91.20
38225;BME280;24025;48.138;11.428;2023-05-02T06:32:55;95822.94;;;10.46;91.78
38225;BME280;24025;48.138;11.428;2023-05-02T06:35:27;95818.09;;;10.52;90.46
38225;BME280;24025;48.138;11.428;2023-05-02T06:37:58;95821.59;;;10.56;88.89
38225;BME280;24025;48.138;11.428;2023-05-02T06:40:30;95830.91;;;10.66;89.48
38225;BME280;24025;48.138;11.428;2023-05-02T06:43:02;95840.78;;;10.65;90.17
38225;BME280;24025;48.138;11.428;2023-05-02T06:45:33;95835.22;;;10.74;90.01
38225;BME280;24025;48.138;11.428;2023-05-02T06:48:05;95838.97;;;10.69;90.65
38225;BME280;24025;48.138;11.428;2023-05-02T06:50:38;95838.44;;;10.83;89.17
38225;BME280;24025;48.138;11.428;2023-05-02T06:53:09;95846.16;;;10.88;89.35
38225;BME280;24025;48.138;11.428;2023-05-02T06:55:42;95838.56;;;10.90;88.13
38225;BME280;24025;48.138;11.428;2023-05-02T06:58:14;95845.44;;;10.91;88.01
38225;BME280;24025;48.138;11.428;2023-05-02T07:00:46;95845.38;;;10.88;87.09
38225;BME280;24025;48.138;11.428;2023-05-02T07:03:19;95851.00;;;11.05;86.27
38225;BME280;24025;48.138;11.428;2023-05-02T07:05:50;95847.28;;;10.87;87.84
38225;BME280;24025;48.138;11.428;2023-05-02T07:08:22;95851.28;;;10.77;87.42
38225;BME280;24025;48.138;11.428;2023-05-02T07:10:54;95850.22;;;10.82;87.86
38225;BME280;24025;48.138;11.428;2023-05-02T07:13:25;95854.19;;;10.92;88.42
38225;BME280;24025;48.138;11.428;2023-05-02T07:15:57;95855.16;;;11.03;87.85
38225;BME280;24025;48.138;11.428;2023-05-02T07:18:28;95849.88;;;11.06;87.25
38225;BME280;24025;48.138;11.428;2023-05-02T07:21:00;95851.91;;;11.13;86.86
38225;BME280;24025;48.138;11.428;2023-05-02T07:23:32;95853.25;;;11.03;87.39
38225;BME280;24025;48.138;11.428;2023-05-02T07:26:03;95857.41;;;11.01;86.71
38225;BME280;24025;48.138;11.428;2023-05-02T07:28:38;95856.19;;;11.21;87.44
38225;BME280;24025;48.138;11.428;2023-05-02T07:31:09;95855.94;;;11.30;86.31
38225;BME280;24025;48.138;11.428;2023-05-02T07:33:41;95865.81;;;11.26;85.33
38225;BME280;24025;48.138;11.428;2023-05-02T07:36:13;95863.38;;;11.17;85.09
38225;BME280;24025;48.138;11.428;2023-05-02T07:38:44;95866.31;;;11.09;87.45
38225;BME280;24025;48.138;11.428;2023-05-02T07:41:16;95864.97;;;11.22;86.61
38225;BME280;24025;48.138;11.428;2023-05-02T07:43:47;95863.66;;;11.35;86.72
38225;BME280;24025;48.138;11.428;2023-05-02T07:46:19;95867.00;;;11.55;85.40
38225;BME280;24025;48.138;11.428;2023-05-02T07:48:51;95870.31;;;11.22;85.71
38225;BME280;24025;48.138;11.428;2023-05-02T07:51:24;95868.41;;;11.45;85.57
38225;BME280;24025;48.138;11.428;2023-05-02T07:53:57;95867.63;;;11.71;84.75
38225;BME280;24025;48.138;11.428;2023-05-02T07:56:29;95881.28;;;11.40;84.53
38225;BME280;24025;48.138;11.428;2023-05-02T07:59:01;95878.09;;;11.57;84.18
38225;BME280;24025;48.138;11.428;2023-05-02T08:01:35;95873.34;;;11.70;85.09
38225;BME280;24025;48.138;11.428;2023-05-02T08:04:07;95877.19;;;11.72;84.95
38225;BME280;24025;48.138;11.428;2023-05-02T08:06:43;95870.34;;;12.01;83.23
38225;BME280;24025;48.138;11.428;2023-05-02T08:09:15;95879.19;;;11.79;82.11
38225;BME280;24025;48.138;11.428;2023-05-02T08:11:46;95884.63;;;12.12;81.07
38225;BME280;24025;48.138;11.428;2023-05-02T08:14:18;95887.25;;;12.39;82.30
38225;BME280;24025;48.138;11.428;2023-05-02T08:16:49;95879.91;;;12.66;78.47
38225;BME280;24025;48.138;11.428;2023-05-02T08:19:21;95885.34;;;12.76;77.76
38225;BME280;24025;48.138;11.428;2023-05-02T08:21:53;95893.47;;;12.84;78.45
38225;BME280;24025;48.138;11.428;2023-05-02T08:24:25;95886.66;;;12.93;76.75
38225;BME280;24025;48.138;11.428;2023-05-02T08:26:58;95888.22;;;12.94;77.70
38225;BME280;24025;48.138;11.428;2023-05-02T08:29:29;95886.75;;;13.04;76.77
38225;BME280;24025;48.138;11.428;2023-05-02T08:32:01;95890.97;;;13.05;77.18
38225;BME280;24025;48.138;11.428;2023-05-02T08:34:33;95890.41;;;13.22;76.13
38225;BME280;24025;48.138;11.428;2023-05-02T08:37:07;95890.84;;;13.31;74.97
38225;BME280;24025;48.138;11.428;2023-05-02T08:39:39;95888.47;;;13.23;73.99
38225;BME280;24025;48.138;11.428;2023-05-02T08:42:11;95890.66;;;13.10;74.72
38225;BME280;24025;48.138;11.428;2023-05-02T08:44:42;95893.47;;;13.24;73.98
38225;BME280;24025;48.138;11.428;2023-05-02T08:47:13;95893.63;;;13.42;74.40
38225;BME280;24025;48.138;11.428;2023-05-02T08:49:45;95896.28;;;13.42;71.34
38225;BME280;24025;48.138;11.428;2023-05-02T08:52:19;95899.63;;;13.28;72.75
38225;BME280;24025;48.138;11.428;2023-05-02T08:54:50;95893.81;;;13.19;73.32
38225;BME280;24025;48.138;11.428;2023-05-02T08:57:22;95910.13;;;13.48;73.00
38225;BME280;24025;48.138;11.428;2023-05-02T08:59:53;95906.78;;;13.62;72.25
38225;BME280;24025;48.138;11.428;2023-05-02T09:02:34;95898.56;;;13.95;71.54
38225;BME280;24025;48.138;11.428;2023-05-02T09:05:08;95899.47;;;14.17;69.89
38225;BME280;24025;48.138;11.428;2023-05-02T09:07:45;95910.19;;;14.21;67.97
38225;BME280;24025;48.138;11.428;2023-05-02T09:10:20;95911.06;;;14.39;68.23
38225;BME280;24025;48.138;11.428;2023-05-02T09:12:51;95909.06;;;14.22;67.42
38225;BME280;24025;48.138;11.428;2023-05-02T09:15:23;95911.78;;;14.25;68.64
38225;BME280;24025;48.138;11.428;2023-05-02T09:17:54;95918.72;;;14.37;68.28
38225;BME280;24025;48.138;11.428;2023-05-02T09:20:26;95915.47;;;14.03;67.69
38225;BME280;24025;48.138;11.428;2023-05-02T09:22:57;95927.06;;;14.14;68.18
38225;BME280;24025;48.138;11.428;2023-05-02T09:25:34;95919.56;;;13.86;68.09
38225;BME280;24025;48.138;11.428;2023-05-02T09:28:06;95920.13;;;14.13;68.59
38225;BME280;24025;48.138;11.428;2023-05-02T09:30:37;95923.13;;;14.01;69.44
38225;BME280;24025;48.138;11.428;2023-05-02T09:33:09;95919.66;;;13.97;68.74
38225;BME280;24025;48.138;11.428;2023-05-02T09:35:49;95925.06;;;14.04;66.77
38225;BME280;24025;48.138;11.428;2023-05-02T09:38:23;95925.91;;;14.22;67.44
38225;BME280;24025;48.138;11.428;2023-05-02T09:40:55;95927.25;;;14.53;67.72
38225;BME280;24025;48.138;11.428;2023-05-02T09:43:27;95925.41;;;14.68;66.39
38225;BME280;24025;48.138;11.428;2023-05-02T09:48:31;95925.25;;;14.43;66.11
38225;BME280;24025;48.138;11.428;2023-05-02T09:51:02;95926.88;;;14.51;65.53
38225;BME280;24025;48.138;11.428;2023-05-02T09:53:34;95932.34;;;14.83;66.12
38225;BME280;24025;48.138;11.428;2023-05-02T09:56:13;95924.69;;;14.89;64.40
38225;BME280;24025;48.138;11.428;2023-05-02T09:58:45;95925.84;;;14.88;65.49
38225;BME280;24025;48.138;11.428;2023-05-02T10:01:17;95923.53;;;14.90;65.40
38225;BME280;24025;48.138;11.428;2023-05-02T10:03:49;95934.22;;;14.72;65.21
38225;BME280;24025;48.138;11.428;2023-05-02T10:06:21;95929.16;;;14.56;64.53
38225;BME280;24025;48.138;11.428;2023-05-02T10:08:53;95926.56;;;14.74;64.58
38225;BME280;24025;48.138;11.428;2023-05-02T10:11:24;95928.94;;;14.93;64.73
38225;BME280;24025;48.138;11.428;2023-05-02T10:13:55;95925.06;;;14.91;63.38
38225;BME280;24025;48.138;11.428;2023-05-02T10:16:27;95928.94;;;15.08;62.81
38225;BME280;24025;48.138;11.428;2023-05-02T10:19:03;95922.03;;;14.99;64.48
38225;BME280;24025;48.138;11.428;2023-05-02T10:21:38;95930.91;;;15.28;62.70
38225;BME280;24025;48.138;11.428;2023-05-02T10:24:10;95930.50;;;15.12;64.19
38225;BME280;24025;48.138;11.428;2023-05-02T10:26:43;95927.81;;;15.23;62.84
38225;BME280;24025;48.138;11.428;2023-05-02T10:29:14;95925.84;;;14.88;63.05
38225;BME280;24025;48.138;11.428;2023-05-02T10:31:46;95923.53;;;14.90;63.15
38225;BME280;24025;48.138;11.428;2023-05-02T10:34:18;95924.84;;;14.37;65.84
38225;BME280;24025;48.138;11.428;2023-05-02T10:36:50;95926.28;;;14.13;68.12
38225;BME280;24025;48.138;11.428;2023-05-02T10:39:21;95937.88;;;13.70;69.99
38225;BME280;24025;48.138;11.428;2023-05-02T10:41:55;95932.91;;;13.72;73.05
38225;BME280;24025;48.138;11.428;2023-05-02T10:44:31;95932.81;;;13.61;76.42
38225;BME280;24025;48.138;11.428;2023-05-02T10:47:18;95937.53;;;13.30;75.49
38225;BME280;24025;48.138;11.428;2023-05-02T10:49:54;95943.97;;;13.22;75.94
38225;BME280;24025;48.138;11.428;2023-05-02T10:52:26;95934.25;;;13.11;77.73
38225;BME280;24025;48.138;11.428;2023-05-02T11:00:27;95935.72;;;13.04;85.03
38225;BME280;24025;48.138;11.428;2023-05-02T11:03:00;95937.31;;;13.09;85.61
38225;BME280;24025;48.138;11.428;2023-05-02T11:05:32;95943.50;;;13.17;86.14
38225;BME280;24025;48.138;11.428;2023-05-02T11:10:55;95945.00;;;13.14;87.12
38225;BME280;24025;48.138;11.428;2023-05-02T11:16:16;95945.13;;;13.25;86.67
38225;BME280;24025;48.138;11.428;2023-05-02T11:18:57;95949.00;;;13.31;86.76
38225;BME280;24025;48.138;11.428;2023-05-02T11:21:28;95945.63;;;13.38;86.83
38225;BME280;24025;48.138;11.428;2023-05-02T11:24:35;95946.88;;;13.47;85.72
38225;BME280;24025;48.138;11.428;2023-05-02T11:26:55;95944.97;;;13.51;84.51
38225;BME280;24025;48.138;11.428;2023-05-02T11:29:51;95951.91;;;13.52;85.23
38225;BME280;24025;48.138;11.428;2023-05-02T11:32:22;95943.47;;;13.54;83.37
38225;BME280;24025;48.138;11.428;2023-05-02T11:34:55;95943.13;;;13.59;84.07
38225;BME280;24025;48.138;11.428;2023-05-02T11:37:27;95939.31;;;13.60;84.75
38225;BME280;24025;48.138;11.428;2023-05-02T11:40:11;95939.31;;;13.60;86.42
38225;BME280;24025;48.138;11.428;2023-05-02T11:42:43;95930.47;;;13.52;88.53
38225;BME280;24025;48.138;11.428;2023-05-02T11:45:15;95928.63;;;13.64;87.96
38225;BME280;24025;48.138;11.428;2023-05-02T11:47:47;95930.28;;;13.79;87.90
38225;BME280;24025;48.138;11.428;2023-05-02T11:50:19;95919.63;;;13.89;87.43
38225;BME280;24025;48.138;11.428;2023-05-02T11:52:51;95928.06;;;13.95;84.94
38225;BME280;24025;48.138;11.428;2023-05-02T11:55:22;95936.16;;;14.02;84.96
38225;BME280;24025;48.138;11.428;2023-05-02T11:57:54;95936.47;;;13.90;84.05
38225;BME280;24025;48.138;11.428;2023-05-02T12:00:26;95925.06;;;14.04;84.36
38225;BME280;24025;48.138;11.428;2023-05-02T12:02:58;95939.31;;;14.18;84.25
38225;BME280;24025;48.138;11.428;2023-05-02T12:05:29;95927.88;;;14.25;83.55
38225;BME280;24025;48.138;11.428;2023-05-02T12:08:01;95924.81;;;14.30;83.31
38225;BME280;24025;48.138;11.428;2023-05-02T12:10:36;95930.97;;;14.34;82.92
38225;BME280;24025;48.138;11.428;2023-05-02T12:13:08;95936.34;;;14.34;83.31
38225;BME280;24025;48.138;11.428;2023-05-02T12:15:41;95933.28;;;14.36;83.21
38225;BME280;24025;48.138;11.428;2023-05-02T12:18:13;95939.00;;;14.31;79.40
38225;BME280;24025;48.138;11.428;2023-05-02T12:20:45;95938.59;;;14.25;79.81
38225;BME280;24025;48.138;11.428;2023-05-02T12:23:20;95937.06;;;14.24;80.58
38225;BME280;24025;48.138;11.428;2023-05-02T12:25:52;95937.81;;;14.25;80.81
38225;BME280;24025;48.138;11.428;2023-05-02T12:28:23;95941.63;;;14.20;78.84
38225;BME280;24025;48.138;11.428;2023-05-02T12:30:55;95942.38;;;14.21;81.14
38225;BME280;24025;48.138;11.428;2023-05-02T12:33:26;95940.13;;;14.23;80.61
38225;BME280;24025;48.138;11.428;2023-05-02T12:36:04;95947.41;;;14.29;78.67
38225;BME280;24025;48.138;11.428;2023-05-02T12:38:36;95943.97;;;14.29;77.84
38225;BME280;24025;48.138;11.428;2023-05-02T12:41:08;95945.16;;;14.31;79.86
38225;BME280;24025;48.138;11.428;2023-05-02T12:43:48;95945.19;;;14.42;81.33
38225;BME280;24025;48.138;11.428;2023-05-02T12:46:19;95942.19;;;14.51;79.04
38225;BME280;24025;48.138;11.428;2023-05-02T12:49:00;95943.38;;;14.60;78.72
38225;BME280;24025;48.138;11.428;2023-05-02T12:51:31;95943.44;;;14.78;79.11
38225;BME280;24025;48.138;11.428;2023-05-02T12:54:03;95945.00;;;14.83;75.26
38225;BME280;24025;48.138;11.428;2023-05-02T12:56:38;95941.59;;;14.96;75.33
38225;BME280;24025;48.138;11.428;2023-05-02T12:59:10;95943.47;;;14.85;73.87
38225;BME280;24025;48.138;11.428;2023-05-02T13:01:56;95943.25;;;14.35;74.27
38225;BME280;24025;48.138;11.428;2023-05-02T13:04:34;95943.00;;;14.65;75.34
38225;BME280;24025;48.138;11.428;2023-05-02T13:07:06;95940.38;;;14.80;76.54
38225;BME280;24025;48.138;11.428;2023-05-02T13:09:38;95946.16;;;14.89;76.94
38225;BME280;24025;48.138;11.428;2023-05-02T13:12:09;95938.53;;;15.05;76.50
38225;BME280;24025;48.138;11.428;2023-05-02T13:14:41;95946.22;;;15.03;73.19
38225;BME280;24025;48.138;11.428;2023-05-02T13:17:12;95946.97;;;15.04;71.68
38225;BME280;24025;48.138;11.428;2023-05-02T13:19:44;95947.72;;;15.00;72.23
38225;BME280;24025;48.138;11.428;2023-05-02T13:22:31;95947.72;;;15.00;74.28
38225;BME280;24025;48.138;11.428;2023-05-02T13:25:05;95956.16;;;14.99;73.11
38225;BME280;24025;48.138;11.428;2023-05-02T13:27:37;95961.53;;;14.99;73.75
38225;BME280;24025;48.138;11.428;2023-05-02T13:30:09;95958.81;;;14.88;69.69
38225;BME280;24025;48.138;11.428;2023-05-02T13:32:42;95956.88;;;14.82;69.85
38225;BME280;24025;48.138;11.428;2023-05-02T13:35:13;95952.31;;;14.86;71.05
38225;BME280;24025;48.138;11.428;2023-05-02T13:37:45;95946.56;;;14.87;72.67
38225;BME280;24025;48.138;11.428;2023-05-02T13:40:18;95948.09;;;14.88;71.31
38225;BME280;24025;48.138;11.428;2023-05-02T13:42:50;95942.72;;;14.88;69.14
38225;BME280;24025;48.138;11.428;2023-05-02T13:45:21;95954.25;;;14.96;70.21
38225;BME280;24025;48.138;11.428;2023-05-02T13:47:52;95950.41;;;14.97;68.46
38225;BME280;24025;48.138;11.428;2023-05-02T13:50:24;95957.31;;;14.94;66.51
38225;BME280;24025;48.138;11.428;2023-05-02T13:52:55;95960.78;;;14.98;66.61
38225;BME280;24025;48.138;11.428;2023-05-02T13:55:27;95960.78;;;15.06;66.47
38225;BME280;24025;48.138;11.428;2023-05-02T13:57:58;95956.59;;;15.12;66.66